Rouleau, Canada
Current Conditions -  °F | °C
As of 10:00 PM on Tuesday 21 Oct 2014 (Local Time) from CYQR Reporting Station
Broken Clouds Broken Clouds  
Wind Chill: 52°   Ceiling: 14000
Heat Index: 52°   Visibility: 15mi
Dew Point: 43°   Wind: 9mph
Humidity: 71%   Direction: 150°SSE
Pressure: 29.56"   Gusts: NA
Location:  50.18°N, 104.9°W
Report Text: CYQR 220400Z 15008KT 15SM BKN140 11/06 A2956 RMK AC6 SLP021 DENSITY ALT 2200FT
Loading
Personal Weather Stations






























Interactive Weather Map
Tropical Storm Tracking
New forecast layout! Learn more

10-Day Weather Forecast

Advertisements
Track Severe Weather on mobile